Time;durP1;ratioP1;P1;durP2;ratioP2;P2;SDS_P1;SDS_P2;PMS_P1;PMS_P2;Temp;Humidity;BMP_temperature;BMP_pressure;BME280_temperature;BME280_humidity;BME280_pressure;Samples;Min_cycle;Max_cycle;Signal;HPM_P1;HPM_P2
2023/10/27 00:01:27;;;;;;;12.20;9.90;;;;;;;7.94;100.00;97432.88;431718;1273;139207;-66
2023/10/27 00:11:33;;;;;;;11.70;8.90;;;;;;;7.85;100.00;97429.77;430801;1270;139392;-66
2023/10/27 00:21:38;;;;;;;12.10;10.10;;;;;;;7.80;100.00;97420.82;430295;1271;139561;-66
2023/10/27 00:31:44;;;;;;;14.40;11.70;;;;;;;7.83;100.00;97414.30;430311;1273;139626;-66
2023/10/27 00:41:50;;;;;;;17.60;12.90;;;;;;;7.83;100.00;97403.65;430238;1275;139529;-67
2023/10/27 00:51:56;;;;;;;12.90;10.10;;;;;;;7.81;100.00;97406.41;430072;1275;140130;-65
2023/10/27 01:02:02;;;;;;;12.00;10.80;;;;;;;7.80;100.00;97399.89;429902;1275;139561;-67
2023/10/27 01:12:08;;;;;;;13.00;10.80;;;;;;;7.74;100.00;97385.15;430093;1276;139392;-67
2023/10/27 01:22:15;;;;;;;9.80;8.80;;;;;;;7.64;100.00;97368.23;430171;1270;140194;-65
2023/10/27 01:32:21;;;;;;;14.20;10.80;;;;;;;7.54;100.00;97369.04;430127;1276;139993;-66
2023/10/27 01:42:27;;;;;;;13.70;11.00;;;;;;;7.53;100.00;97382.54;430293;1271;139617;-65
2023/10/27 01:52:33;;;;;;;10.20;9.20;;;;;;;7.57;100.00;97379.23;430507;1271;139836;-66
2023/10/27 02:02:39;;;;;;;11.80;10.70;;;;;;;7.61;100.00;97372.52;430411;1270;139677;-66
2023/10/27 02:12:46;;;;;;;14.00;11.40;;;;;;;7.62;100.00;97373.47;430041;1270;139610;-66
2023/10/27 02:22:51;;;;;;;11.70;10.50;;;;;;;7.65;100.00;97364.14;430453;1271;140795;-67
2023/10/27 02:32:57;;;;;;;11.80;9.80;;;;;;;7.72;100.00;97348.70;430051;1276;139591;-66
2023/10/27 02:43:04;;;;;;;10.40;9.40;;;;;;;7.77;100.00;97348.10;429924;1276;139442;-67
2023/10/27 02:53:10;;;;;;;10.70;9.70;;;;;;;7.68;100.00;97341.87;432548;1273;139814;-66
2023/10/27 03:03:16;;;;;;;10.40;9.30;;;;;;;7.58;100.00;97338.43;430841;1270;140690;-67
2023/10/27 03:13:23;;;;;;;12.20;11.00;;;;;;;7.62;100.00;97332.50;430299;1271;139913;-67
2023/10/27 03:23:29;;;;;;;13.00;11.80;;;;;;;7.68;100.00;97332.13;430730;1270;139341;-66
2023/10/27 03:33:35;;;;;;;13.20;11.50;;;;;;;7.61;100.00;97328.06;430636;1274;140442;-65
2023/10/27 03:43:41;;;;;;;10.40;9.30;;;;;;;7.21;100.00;97338.99;430532;1270;139467;-65
2023/10/27 03:53:47;;;;;;;11.20;10.00;;;;;;;6.79;100.00;97333.02;430003;1271;139291;-66
2023/10/27 04:03:53;;;;;;;11.70;10.50;;;;;;;6.40;100.00;97333.75;429945;1270;139137;-66
2023/10/27 04:13:59;;;;;;;13.90;12.50;;;;;;;6.11;100.00;97333.73;430003;1273;139926;-67
2023/10/27 04:24:07;;;;;;;15.10;12.20;;;;;;;5.87;100.00;97340.58;430143;1273;139502;-67
2023/10/27 04:34:13;;;;;;;13.70;11.80;;;;;;;5.62;100.00;97345.37;430283;1273;139746;-66
2023/10/27 04:44:22;;;;;;;15.90;14.20;;;;;;;5.46;100.00;97348.54;430530;1273;140678;-66
2023/10/27 04:54:28;;;;;;;12.90;11.60;;;;;;;5.44;100.00;97339.00;430255;1273;139434;-66
2023/10/27 05:04:34;;;;;;;14.80;13.30;;;;;;;5.51;100.00;97338.96;429946;1273;140706;-67
2023/10/27 05:14:40;;;;;;;15.50;12.20;;;;;;;5.63;100.00;97343.95;430141;1274;139443;-67
2023/10/27 05:24:46;;;;;;;16.10;13.50;;;;;;;5.67;100.00;97341.52;430588;1270;141157;-68
2023/10/27 05:34:52;;;;;;;15.10;13.20;;;;;;;5.66;100.00;97339.71;430982;1270;139343;-67
2023/10/27 05:44:58;;;;;;;15.20;13.60;;;;;;;5.54;100.00;97346.03;430671;1274;139475;-67
2023/10/27 05:55:05;;;;;;;16.60;13.10;;;;;;;5.40;100.00;97352.52;430628;1270;140435;-63
2023/10/27 06:05:13;;;;;;;18.00;16.00;;;;;;;5.37;100.00;97365.17;430999;1271;139975;-66
2023/10/27 06:15:19;;;;;;;15.50;13.90;;;;;;;5.61;100.00;97352.73;430804;1270;139477;-68
2023/10/27 06:25:25;;;;;;;16.80;15.00;;;;;;;6.64;100.00;97340.08;430725;1271;139382;-63
2023/10/27 06:35:31;;;;;;;14.20;12.30;;;;;;;9.48;100.00;97329.36;430708;1270;139812;-61
2023/10/27 06:45:37;;;;;;;13.70;12.00;;;;;;;12.76;100.00;97338.60;430560;1274;139565;-63
2023/10/27 06:55:44;;;;;;;16.20;14.60;;;;;;;15.68;100.00;97343.45;430498;1270;188642;-63
2023/10/27 07:05:50;;;;;;;19.90;16.30;;;;;;;18.67;100.00;97340.05;430567;1270;139312;-61
2023/10/27 07:15:56;;;;;;;18.10;16.40;;;;;;;21.68;100.00;97332.55;430485;1270;139862;-64
2023/10/27 07:26:10;;;;;;;21.50;19.10;;;;;;;23.28;100.00;97337.27;430271;1274;140238;-65
2023/10/27 07:36:17;;;;;;;19.00;17.10;;;;;;;23.37;97.36;97343.48;430358;1270;139267;-64
2023/10/27 07:46:22;;;;;;;18.00;16.20;;;;;;;22.52;93.15;97346.45;430377;1270;140037;-70
2023/10/27 07:56:29;;;;;;;17.50;15.80;;;;;;;21.99;90.97;97333.02;431506;1270;139979;-68
2023/10/27 08:06:35;;;;;;;16.60;14.80;;;;;;;22.03;89.73;97325.02;430712;1270;138873;-72
2023/10/27 08:16:41;;;;;;;16.60;14.80;;;;;;;21.69;87.33;97326.34;430812;1274;139027;-68
2023/10/27 08:26:47;;;;;;;15.00;13.50;;;;;;;20.57;84.81;97328.60;430959;1270;139410;-67
2023/10/27 08:36:53;;;;;;;16.80;13.80;;;;;;;19.25;84.28;97321.59;431628;1274;138955;-64
2023/10/27 08:46:59;;;;;;;15.90;14.20;;;;;;;18.20;84.67;97305.34;430727;1271;139058;-68
2023/10/27 08:57:08;;;;;;;12.80;11.70;;;;;;;17.73;85.49;97305.23;430900;1270;139153;-67
2023/10/27 09:07:14;;;;;;;15.00;13.30;;;;;;;17.35;85.39;97302.49;435945;1269;139838;-67
2023/10/27 09:17:21;;;;;;;13.00;11.70;;;;;;;16.82;85.79;97300.13;430967;1270;139019;-66
2023/10/27 09:27:29;;;;;;;16.60;12.40;;;;;;;16.23;86.15;97304.80;430844;1270;139522;-67
2023/10/27 09:37:37;;;;;;;13.50;12.20;;;;;;;15.48;86.57;97310.97;430957;1270;139215;-66
2023/10/27 09:47:49;;;;;;;20.30;12.70;;;;;;;14.79;86.91;97303.65;430947;1270;138861;-66
2023/10/27 09:57:55;;;;;;;13.30;12.00;;;;;;;14.09;87.68;97292.17;430101;1271;139113;-68
2023/10/27 10:08:06;;;;;;;12.20;10.90;;;;;;;13.76;88.84;97282.00;429942;1274;140255;-65
2023/10/27 10:18:51;;;;;;;13.30;11.90;;;;;;;13.74;90.05;97278.35;430064;1275;139562;-65
2023/10/27 10:29:32;;;;;;;14.10;12.60;;;;;;;13.76;90.62;97283.05;429881;1270;141019;-65
2023/10/27 10:40:08;;;;;;;13.60;12.30;;;;;;;13.62;90.67;97267.92;430234;1275;139579;-65
2023/10/27 10:50:26;;;;;;;12.60;11.20;;;;;;;13.48;90.79;97248.24;429924;1270;139895;-65
2023/10/27 11:00:36;;;;;;;13.30;11.90;;;;;;;13.47;91.03;97235.20;430080;1276;139633;-65
2023/10/27 11:10:42;;;;;;;14.70;11.60;;;;;;;13.57;91.21;97230.14;430051;1271;139667;-65
2023/10/27 11:20:49;;;;;;;13.80;12.40;;;;;;;13.74;91.32;97231.05;429936;1273;140297;-65
2023/10/27 11:31:07;;;;;;;14.90;11.20;;;;;;;13.65;90.54;97217.90;430070;1271;140209;-65
2023/10/27 11:41:14;;;;;;;11.20;10.10;;;;;;;13.54;90.61;97207.64;430380;1271;140613;-64
2023/10/27 11:51:20;;;;;;;12.80;11.40;;;;;;;13.41;90.55;97202.77;430365;1271;139713;-64
2023/10/27 12:01:26;;;;;;;12.10;10.90;;;;;;;13.00;90.57;97189.66;430020;1270;141728;-64
2023/10/27 12:11:32;;;;;;;13.00;11.40;;;;;;;12.85;90.88;97183.59;430369;1275;139805;-66
2023/10/27 12:21:39;;;;;;;12.40;11.20;;;;;;;12.82;91.53;97170.95;430673;1274;141234;-66
2023/10/27 12:31:45;;;;;;;10.90;9.90;;;;;;;12.67;91.37;97170.29;430588;1271;140458;-67
2023/10/27 12:41:52;;;;;;;10.60;9.60;;;;;;;12.46;91.72;97163.64;431659;1271;140064;-74
2023/10/27 12:51:57;;;;;;;10.70;9.40;;;;;;;12.29;92.09;97155.88;433280;1270;139346;-67
2023/10/27 13:02:03;;;;;;;9.30;8.40;;;;;;;12.28;92.63;97152.24;430043;1275;140377;-67
2023/10/27 13:12:10;;;;;;;14.40;11.10;;;;;;;12.11;92.70;97150.59;430077;1270;139403;-64
2023/10/27 13:22:17;;;;;;;12.10;9.30;;;;;;;11.86;93.25;97157.47;430448;1271;140195;-66
2023/10/27 13:32:23;;;;;;;7.90;7.10;;;;;;;11.57;93.82;97157.17;430253;1276;140043;-63
2023/10/27 13:42:30;;;;;;;12.80;10.70;;;;;;;11.40;94.65;97150.80;430243;1276;139219;-65
2023/10/27 13:52:36;;;;;;;11.00;8.80;;;;;;;11.27;95.38;97145.34;430629;1270;139704;-62
2023/10/27 14:02:42;;;;;;;13.00;8.30;;;;;;;11.08;96.19;97143.27;430445;1275;140420;-68
2023/10/27 14:12:49;;;;;;;9.30;7.70;;;;;;;10.89;96.57;97145.21;430677;1274;139752;-68
2023/10/27 14:22:55;;;;;;;9.60;7.70;;;;;;;10.68;97.14;97142.83;430746;1275;139525;-67
2023/10/27 14:33:01;;;;;;;12.00;9.00;;;;;;;10.56;97.88;97144.77;431677;1271;139704;-73
2023/10/27 14:43:07;;;;;;;9.20;7.00;;;;;;;10.40;98.14;97143.10;434246;1276;142084;-68
2023/10/27 14:53:14;;;;;;;8.00;7.20;;;;;;;10.28;98.67;97141.13;430840;1275;139307;-66
2023/10/27 15:03:20;;;;;;;12.70;9.90;;;;;;;10.19;99.01;97141.35;431245;1276;139250;-74
2023/10/27 15:13:28;;;;;;;16.60;11.80;;;;;;;10.09;99.19;97143.08;431737;1271;139518;-74
2023/10/27 15:23:34;;;;;;;28.00;19.80;;;;;;;10.00;99.53;97144.76;433827;1276;139855;-66
2023/10/27 15:33:40;;;;;;;31.10;20.10;;;;;;;9.92;99.90;97159.03;430066;1275;139787;-67
2023/10/27 15:43:46;;;;;;;29.50;14.60;;;;;;;9.87;100.00;97171.94;430091;1276;141413;-68
2023/10/27 15:53:56;;;;;;;20.40;13.60;;;;;;;9.84;100.00;97179.55;430618;1276;140037;-67
2023/10/27 16:04:03;;;;;;;15.90;12.50;;;;;;;9.84;100.00;97185.77;432093;1275;139905;-70
2023/10/27 16:14:09;;;;;;;12.30;11.10;;;;;;;9.87;100.00;97191.73;431231;1276;142140;-68
2023/10/27 16:24:15;;;;;;;15.60;13.00;;;;;;;9.88;100.00;97195.73;430379;1276;140113;-76
2023/10/27 16:34:21;;;;;;;14.70;12.40;;;;;;;9.84;100.00;97200.19;430468;1275;139624;-72
2023/10/27 16:44:28;;;;;;;19.20;12.70;;;;;;;9.77;100.00;97208.20;433107;1275;140704;-68
2023/10/27 16:54:34;;;;;;;18.90;14.90;;;;;;;9.71;100.00;97212.45;429625;1275;139647;-74
2023/10/27 17:04:40;;;;;;;15.60;13.00;;;;;;;9.67;100.00;97222.63;430408;1276;139601;-67
2023/10/27 17:14:49;;;;;;;13.60;11.80;;;;;;;9.61;100.00;97224.45;430126;1270;140489;-65
2023/10/27 17:24:55;;;;;;;18.80;12.80;;;;;;;9.55;100.00;97227.99;430542;1270;139919;-66
2023/10/27 17:35:01;;;;;;;18.50;14.50;;;;;;;9.51;100.00;97228.72;431503;1274;139615;-71
2023/10/27 17:45:10;;;;;;;19.40;14.10;;;;;;;9.46;100.00;97230.13;430488;1275;139901;-69
2023/10/27 17:55:16;;;;;;;19.10;15.60;;;;;;;9.41;100.00;97237.75;431529;1274;139604;-69
2023/10/27 18:05:24;;;;;;;17.80;14.80;;;;;;;9.36;100.00;97238.16;430511;1270;140578;-69
2023/10/27 18:15:30;;;;;;;14.30;12.70;;;;;;;9.32;100.00;97239.77;430599;1274;141206;-66
2023/10/27 18:25:36;;;;;;;16.10;14.30;;;;;;;9.28;100.00;97238.77;430203;1270;140454;-66
2023/10/27 18:35:43;;;;;;;16.70;14.50;;;;;;;9.25;100.00;97241.31;430369;1276;139490;-67
2023/10/27 18:45:57;;;;;;;15.70;13.80;;;;;;;9.26;100.00;97248.22;430507;1276;139769;-67
2023/10/27 18:56:06;;;;;;;13.70;12.00;;;;;;;9.28;100.00;97254.90;430176;1274;151404;-67
2023/10/27 19:06:14;;;;;;;13.70;12.20;;;;;;;9.25;100.00;97264.91;430843;1275;139518;-67
2023/10/27 19:16:21;;;;;;;13.00;11.70;;;;;;;9.23;100.00;97271.21;430403;1274;140794;-66
2023/10/27 19:26:27;;;;;;;23.90;18.00;;;;;;;9.22;100.00;97282.25;430438;1271;139913;-65
2023/10/27 19:36:35;;;;;;;18.80;16.40;;;;;;;9.23;100.00;97294.56;430689;1273;139519;-73
2023/10/27 19:46:41;;;;;;;17.10;13.90;;;;;;;9.21;100.00;97304.00;434048;1274;141232;-74
2023/10/27 19:56:47;;;;;;;18.10;15.90;;;;;;;9.20;100.00;97308.64;433565;1270;139951;-74
2023/10/27 20:06:53;;;;;;;18.30;16.20;;;;;;;9.18;100.00;97315.46;434187;1270;140010;-74
2023/10/27 20:16:59;;;;;;;21.60;15.50;;;;;;;9.12;100.00;97323.05;433666;1275;139787;-74
2023/10/27 20:27:05;;;;;;;16.80;14.60;;;;;;;9.04;100.00;97326.57;433207;1271;139757;-74
2023/10/27 20:37:11;;;;;;;15.70;12.90;;;;;;;8.95;100.00;97338.55;433521;1270;139720;-74
2023/10/27 20:47:17;;;;;;;13.00;11.50;;;;;;;8.88;100.00;97352.20;433569;1275;139641;-74
2023/10/27 20:57:23;;;;;;;14.10;11.00;;;;;;;8.76;100.00;97353.73;433341;1276;139769;-74
2023/10/27 21:07:29;;;;;;;13.90;11.80;;;;;;;8.63;100.00;97363.61;433481;1275;139956;-73
2023/10/27 21:17:35;;;;;;;11.40;9.60;;;;;;;8.59;100.00;97379.67;433288;1272;139903;-73
2023/10/27 21:27:41;;;;;;;10.90;8.70;;;;;;;8.59;100.00;97390.73;433435;1276;142301;-74
2023/10/27 21:37:51;;;;;;;11.60;8.70;;;;;;;8.54;100.00;97397.91;433209;1273;139595;-74
2023/10/27 21:47:59;;;;;;;10.00;8.00;;;;;;;8.49;100.00;97408.69;433195;1273;139841;-73
2023/10/27 21:58:04;;;;;;;;;;;;;;;8.44;100.00;97423.91;433366;1273;140456;-72
2023/10/27 22:08:09;;;;;;;7.70;6.90;;;;;;;8.42;100.00;97430.86;433548;1273;126165;-73
2023/10/27 22:18:16;;;;;;;8.20;6.30;;;;;;;8.38;100.00;97438.36;433719;1270;140296;-73
2023/10/27 22:28:22;;;;;;;6.40;5.70;;;;;;;8.36;100.00;97452.34;433537;1269;139188;-73
2023/10/27 22:38:29;;;;;;;7.40;5.70;;;;;;;8.30;100.00;97456.55;433509;1270;139198;-73
2023/10/27 22:48:34;;;;;;;6.60;4.90;;;;;;;8.20;100.00;97475.36;433559;1270;139284;-73
2023/10/27 22:58:40;;;;;;;7.50;5.60;;;;;;;8.17;100.00;97483.32;433383;1270;140483;-73
2023/10/27 23:08:49;;;;;;;6.90;5.90;;;;;;;8.07;100.00;97490.03;433769;1270;140032;-73
2023/10/27 23:18:56;;;;;;;8.00;7.20;;;;;;;7.96;100.00;97493.44;433952;1270;139114;-73
2023/10/27 23:29:02;;;;;;;11.00;8.30;;;;;;;7.90;100.00;97499.92;433385;1270;139811;-73
2023/10/27 23:39:09;;;;;;;8.70;7.80;;;;;;;7.86;100.00;97509.15;433321;1271;139184;-73
2023/10/27 23:49:16;;;;;;;9.00;7.80;;;;;;;7.81;100.00;97513.56;433577;1270;139492;-73
2023/10/27 23:59:22;;;;;;;9.40;8.10;;;;;;;7.78;100.00;97528.15;433596;1270;140813;-73
